National Weather Service United States Department of Commerce


428
FTPA31 PHFO 222332
TAFSTU
TAF
NSTU 222332Z 2300/2324 05007KT P6SM VCSH SCT020 BKN040 BKN100
FM230600 02011KT P6SM VCTS SCT015CB BKN035 OVC050=


000
SAZS31 NSTU 230352
MTRPPG
METAR NSTU 230350Z 01010KT 12SM FEW019 BKN040 OVC100 28/25 A2980 RMK
SLP091 T02810251=

METAR Formatted Surface Weather Observation  Issued: 02/22/2018 04:52:59 PM SST

NSTU Observation History

 

Significant Weather Charts